Terminal Aerodrome Forecast
Issued by NWS Wilmington, NC

Home | Current Version | Previous Version | Text Only | Print | Product List | Glossary On
Versions: 1 2 3 4 5 6 7 8 9 10 11 12 13
000
FTUS42 KILM 032327
TAFILM
TAF
KILM 032327Z 0400/0424 36003KT P6SM BKN120
     FM041500 04006KT P6SM OVC090
     FM042100 04006KT P6SM -RA OVC070=

USA.gov is the U.S. government's official web portal to all federal, state and local government web resources and services.